createdAt,value
2018-04-24T00:02:20.208Z,12.10
2018-04-24T00:04:47.783Z,33.27
2018-04-24T00:07:15.359Z,16.27
2018-04-24T00:09:43.215Z,12.90
2018-04-24T00:12:10.799Z,30.43
2018-04-24T00:14:38.388Z,37.20
2018-04-24T00:17:06.008Z,23.00
2018-04-24T00:19:33.595Z,17.43
2018-04-24T00:22:01.175Z,13.00
2018-04-24T00:24:28.796Z,11.10
2018-04-24T00:26:56.377Z,18.80
2018-04-24T00:29:23.963Z,17.30
2018-04-24T00:31:51.595Z,14.70
2018-04-24T00:34:19.222Z,12.00
2018-04-24T00:36:46.786Z,17.67
2018-04-24T00:39:14.392Z,20.50
2018-04-24T00:41:41.973Z,17.60
2018-04-24T00:44:09.551Z,18.10
2018-04-24T00:46:37.162Z,13.33
2018-04-24T00:49:04.746Z,14.27
2018-04-24T00:51:32.334Z,19.50
2018-04-24T00:53:59.951Z,22.20
2018-04-24T00:56:27.808Z,16.73
2018-04-24T00:58:55.355Z,14.30
2018-04-24T01:01:22.997Z,17.50
2018-04-24T01:03:50.584Z,15.13
2018-04-24T01:06:18.163Z,11.23
2018-04-24T01:08:45.770Z,12.43
2018-04-24T01:11:13.338Z,15.10
2018-04-24T01:13:40.923Z,15.63
2018-04-24T01:16:08.529Z,14.70
2018-04-24T01:18:36.117Z,10.50
2018-04-24T01:21:03.747Z,12.60
2018-04-24T01:23:31.410Z,13.77
2018-04-24T01:25:59.075Z,14.70
2018-04-24T01:28:26.734Z,9.10
2018-04-24T01:30:54.356Z,26.30
2018-04-24T01:33:21.975Z,15.53
2018-04-24T01:35:49.739Z,18.87
2018-04-24T01:38:17.360Z,12.20
2018-04-24T01:40:45.047Z,11.80
2018-04-24T01:43:12.626Z,11.13
2018-04-24T01:45:40.250Z,11.60
2018-04-24T01:48:08.017Z,15.93
2018-04-24T01:50:35.710Z,23.60
2018-04-24T01:53:03.319Z,21.03
2018-04-24T01:55:30.898Z,12.90
2018-04-24T01:57:58.484Z,11.10
2018-04-24T02:00:26.095Z,12.23
2018-04-24T02:02:53.702Z,12.90
2018-04-24T02:05:21.475Z,15.10
2018-04-24T02:07:49.087Z,9.13
2018-04-24T02:10:16.708Z,11.30
2018-04-24T02:12:44.288Z,11.90
2018-04-24T02:15:11.912Z,18.50
2018-04-24T02:17:39.512Z,16.40
2018-04-24T02:20:07.108Z,10.13
2018-04-24T02:22:34.972Z,14.27
2018-04-24T02:25:02.692Z,9.93
2018-04-24T02:27:30.433Z,13.23
2018-04-24T02:29:58.117Z,12.37
2018-04-24T02:32:25.736Z,13.37
2018-04-24T02:34:53.425Z,10.77
2018-04-24T02:37:21.352Z,14.13
2018-04-24T02:39:49.159Z,16.27
2018-04-24T02:42:16.825Z,11.03
2018-04-24T02:44:44.473Z,18.40
2018-04-24T02:47:12.047Z,13.03
2018-04-24T02:49:39.631Z,12.23
2018-04-24T02:52:07.540Z,15.10
2018-04-24T02:54:35.319Z,20.73
2018-04-24T02:57:03.000Z,18.33
2018-04-24T02:59:30.860Z,22.07
2018-04-24T03:01:58.448Z,21.83
2018-04-24T03:04:26.028Z,22.47
2018-04-24T03:06:53.978Z,18.13
2018-04-24T03:09:21.564Z,18.40
2018-04-24T03:11:49.189Z,16.00
2018-04-24T03:14:16.790Z,18.73
2018-04-24T03:16:44.368Z,26.20
2018-04-24T03:19:11.948Z,35.30
2018-04-24T03:21:39.596Z,26.60
2018-04-24T03:24:07.176Z,20.30
2018-04-24T03:26:34.751Z,22.93
2018-04-24T03:29:02.383Z,33.30
2018-04-24T03:31:29.968Z,16.13
2018-04-24T03:33:57.556Z,31.13
2018-04-24T03:36:25.184Z,22.13
2018-04-24T03:38:52.777Z,24.47
2018-04-24T03:41:20.367Z,24.77
2018-04-24T03:43:47.993Z,47.00
2018-04-24T03:46:15.567Z,29.47
2018-04-24T03:48:43.161Z,30.73
2018-04-24T03:51:10.757Z,16.20
2018-04-24T03:53:38.324Z,21.80
2018-04-24T03:56:05.906Z,18.00
2018-04-24T03:58:33.530Z,33.33
2018-04-24T04:01:01.116Z,21.23
2018-04-24T04:03:28.708Z,19.10
2018-04-24T04:05:56.324Z,11.50
2018-04-24T04:08:23.976Z,10.70
2018-04-24T04:10:51.561Z,14.77
2018-04-24T04:13:19.175Z,31.93
2018-04-24T04:15:46.756Z,11.33
2018-04-24T04:18:26.202Z,23.63
2018-04-24T04:21:05.429Z,10.17
2018-04-24T04:23:44.642Z,12.93
2018-04-24T04:26:12.220Z,12.70
2018-04-24T04:28:40.707Z,9.70
2018-04-24T04:31:08.329Z,11.23
2018-04-24T04:33:35.921Z,14.03
2018-04-24T04:36:03.496Z,23.17
2018-04-24T04:38:31.103Z,8.50
2018-04-24T04:40:58.685Z,15.03
2018-04-24T04:43:26.249Z,15.27
2018-04-24T04:45:53.867Z,31.03
2018-04-24T04:48:21.446Z,20.00
2018-04-24T04:50:49.031Z,37.50
2018-04-24T04:53:16.658Z,18.10
2018-04-24T04:55:44.245Z,20.47
2018-04-24T04:58:11.838Z,18.90
2018-04-24T05:00:39.459Z,20.77
2018-04-24T05:03:07.079Z,16.80
2018-04-24T05:05:34.651Z,16.07
2018-04-24T05:08:02.256Z,21.93
2018-04-24T05:10:29.837Z,15.47
2018-04-24T05:12:57.416Z,26.67
2018-04-24T05:15:25.043Z,21.90
2018-04-24T05:17:52.617Z,7.77
2018-04-24T05:20:20.205Z,18.07
2018-04-24T05:22:47.821Z,42.80
2018-04-24T05:25:15.456Z,11.67
2018-04-24T05:27:43.072Z,16.80
2018-04-24T05:30:10.701Z,44.93
2018-04-24T05:32:38.284Z,24.87
2018-04-24T05:35:05.864Z,34.07
2018-04-24T05:37:33.494Z,52.87
2018-04-24T05:40:01.080Z,30.80
2018-04-24T05:42:28.663Z,24.37
2018-04-24T05:44:56.379Z,20.90
2018-04-24T05:47:23.960Z,26.80
2018-04-24T05:49:51.717Z,25.77
2018-04-24T05:52:19.343Z,17.83
2018-04-24T05:54:46.915Z,20.90
2018-04-24T05:57:14.487Z,27.47
2018-04-24T05:59:42.092Z,58.30
2018-04-24T06:02:09.661Z,26.43
2018-04-24T06:04:37.253Z,34.60
2018-04-24T06:07:04.863Z,37.73
2018-04-24T06:09:32.452Z,31.23
2018-04-24T06:12:00.052Z,52.10
2018-04-24T06:14:27.677Z,45.30
2018-04-24T06:16:55.258Z,58.87
2018-04-24T06:19:22.892Z,32.53
2018-04-24T06:21:50.514Z,54.00
2018-04-24T06:24:18.096Z,34.37
2018-04-24T06:26:45.677Z,36.57
2018-04-24T06:29:13.297Z,39.03
2018-04-24T06:31:40.872Z,45.50
2018-04-24T06:34:08.471Z,41.43
2018-04-24T06:36:36.150Z,43.77
2018-04-24T06:39:03.843Z,37.97
2018-04-24T06:41:31.439Z,51.43
2018-04-24T06:43:59.050Z,34.27
2018-04-24T06:46:26.630Z,68.67
2018-04-24T06:48:54.215Z,62.73
2018-04-24T06:51:21.841Z,68.87
2018-04-24T06:53:49.470Z,88.63
2018-04-24T06:56:17.058Z,90.73
2018-04-24T06:58:44.685Z,47.80
2018-04-24T07:01:12.270Z,75.27
2018-04-24T07:03:39.848Z,56.03
2018-04-24T07:06:07.483Z,76.13
2018-04-24T07:08:35.067Z,50.47
2018-04-24T07:11:02.664Z,73.63
2018-04-24T07:13:30.335Z,46.80
2018-04-24T07:15:57.930Z,34.83
2018-04-24T07:18:25.514Z,38.53
2018-04-24T07:20:53.137Z,48.13
2018-04-24T07:23:20.715Z,48.27
2018-04-24T07:25:48.298Z,36.60
2018-04-24T07:28:15.975Z,26.77
2018-04-24T07:30:43.556Z,28.27
2018-04-24T07:33:11.139Z,30.93
2018-04-24T07:35:38.757Z,25.90
2018-04-24T07:38:06.348Z,25.57
2018-04-24T07:40:33.933Z,32.70
2018-04-24T07:43:01.552Z,18.45
2018-04-24T07:45:29.146Z,35.23
2018-04-24T07:47:56.725Z,21.47
2018-04-24T07:50:24.340Z,17.17
2018-04-24T07:52:51.926Z,19.60
2018-04-24T07:55:19.504Z,15.32
2018-04-24T07:57:47.128Z,45.12
2018-04-24T08:00:14.711Z,37.95
2018-04-24T08:02:42.283Z,40.50
2018-04-24T08:05:09.911Z,25.73
2018-04-24T08:07:37.492Z,26.87
2018-04-24T08:10:05.104Z,20.92
2018-04-24T08:12:32.726Z,19.00
2018-04-24T08:15:00.316Z,14.80
2018-04-24T08:17:27.970Z,16.23
2018-04-24T08:19:55.649Z,16.02
2018-04-24T08:22:23.332Z,17.75
2018-04-24T08:24:50.930Z,14.65
2018-04-24T08:27:18.551Z,9.07
2018-04-24T08:29:46.140Z,7.85
2018-04-24T08:32:13.729Z,11.00
2018-04-24T08:34:41.359Z,13.30
2018-04-24T08:37:08.936Z,14.70
2018-04-24T08:39:36.519Z,8.60
2018-04-24T08:42:04.132Z,11.00
2018-04-24T08:44:31.713Z,13.57
2018-04-24T08:46:59.283Z,6.85
2018-04-24T08:49:26.898Z,3.58
2018-04-24T08:51:54.499Z,12.10
2018-04-24T08:54:22.101Z,5.60
2018-04-24T08:56:49.727Z,4.60
2018-04-24T08:59:17.317Z,3.55
2018-04-24T09:01:44.904Z,18.12
2018-04-24T09:04:12.555Z,4.62
2018-04-24T09:06:40.134Z,4.32
2018-04-24T09:09:07.706Z,5.35
2018-04-24T09:11:35.320Z,3.72
2018-04-24T09:14:02.955Z,3.37
2018-04-24T09:16:30.524Z,13.27
2018-04-24T09:18:58.155Z,3.33
2018-04-24T09:21:25.759Z,6.78
2018-04-24T09:23:53.695Z,7.87
2018-04-24T09:26:21.393Z,3.08
2018-04-24T09:28:48.982Z,7.37
2018-04-24T09:31:16.603Z,9.43
2018-04-24T09:33:44.245Z,8.80
2018-04-24T09:36:11.828Z,3.12
2018-04-24T09:38:39.413Z,9.82
2018-04-24T09:41:07.024Z,3.00
2018-04-24T09:43:34.604Z,10.95
2018-04-24T09:46:02.239Z,12.88
2018-04-24T09:48:29.840Z,5.15
2018-04-24T09:50:57.414Z,3.83
2018-04-24T09:53:25.007Z,7.43
2018-04-24T09:55:52.631Z,13.98
2018-04-24T09:58:20.224Z,5.55
2018-04-24T10:00:47.832Z,5.60
2018-04-24T10:03:15.464Z,7.85
2018-04-24T10:05:43.042Z,10.13
2018-04-24T10:08:10.621Z,4.03
2018-04-24T10:10:38.223Z,3.87
2018-04-24T10:13:05.877Z,17.62
2018-04-24T10:15:33.459Z,8.43
2018-04-24T10:18:01.168Z,2.62
2018-04-24T10:20:28.743Z,3.70
2018-04-24T10:22:56.335Z,4.47
2018-04-24T10:25:23.946Z,10.07
2018-04-24T10:27:51.519Z,6.15
2018-04-24T10:30:19.096Z,6.28
2018-04-24T10:32:46.703Z,7.70
2018-04-24T10:35:14.278Z,8.73
2018-04-24T10:37:41.860Z,10.23
2018-04-24T10:40:09.467Z,9.23
2018-04-24T10:42:37.059Z,6.97
2018-04-24T10:45:04.665Z,5.12
2018-04-24T10:47:32.280Z,4.00
2018-04-24T10:50:00.024Z,10.10
2018-04-24T10:52:27.663Z,32.10
2018-04-24T10:54:55.256Z,5.70
2018-04-24T10:57:22.821Z,5.47
2018-04-24T10:59:50.430Z,5.47
2018-04-24T11:02:18.033Z,3.97
2018-04-24T11:04:45.624Z,6.07
2018-04-24T11:07:13.208Z,6.00
2018-04-24T11:09:40.820Z,7.30
2018-04-24T11:12:08.416Z,7.70
2018-04-24T11:14:35.999Z,9.18
2018-04-24T11:17:03.640Z,6.40
2018-04-24T11:19:31.237Z,17.85
2018-04-24T11:21:58.819Z,3.10
2018-04-24T11:24:26.449Z,5.70
2018-04-24T11:26:54.039Z,9.50
2018-04-24T11:29:21.616Z,17.40
2018-04-24T11:31:49.228Z,7.35
2018-04-24T11:34:16.809Z,6.72
2018-04-24T11:36:44.452Z,19.05
2018-04-24T11:39:12.069Z,12.80
2018-04-24T11:41:39.726Z,4.82
2018-04-24T11:44:07.353Z,7.72
2018-04-24T11:46:34.970Z,15.82
2018-04-24T11:49:02.625Z,8.50
2018-04-24T11:51:30.183Z,5.18
2018-04-24T11:53:57.847Z,7.90
2018-04-24T11:56:25.409Z,4.50
2018-04-24T11:58:53.000Z,5.12
2018-04-24T12:01:20.856Z,46.50
2018-04-24T12:03:48.579Z,11.60
2018-04-24T12:06:16.148Z,5.12
2018-04-24T12:08:43.765Z,4.50
2018-04-24T12:11:11.337Z,5.03
2018-04-24T12:13:39.019Z,7.57
2018-04-24T12:16:06.623Z,4.43
2018-04-24T12:18:34.203Z,22.08
2018-04-24T12:21:01.784Z,3.58
2018-04-24T12:23:29.399Z,7.60
2018-04-24T12:25:56.991Z,10.05
2018-04-24T12:28:24.581Z,14.93
2018-04-24T12:30:52.187Z,2.95
2018-04-24T12:33:19.760Z,4.53
2018-04-24T12:35:47.342Z,5.05
2018-04-24T12:38:14.988Z,6.07
2018-04-24T12:40:42.569Z,3.85
2018-04-24T12:43:10.149Z,8.10
2018-04-24T12:45:37.769Z,10.27
2018-04-24T12:48:05.341Z,4.97
2018-04-24T12:50:32.915Z,17.00
2018-04-24T12:53:00.510Z,5.43
2018-04-24T12:55:28.081Z,3.78
2018-04-24T12:57:55.677Z,11.43
2018-04-24T13:00:23.310Z,11.32
2018-04-24T13:02:50.888Z,8.48
2018-04-24T13:05:18.481Z,10.27
2018-04-24T13:07:46.098Z,13.80
2018-04-24T13:10:13.680Z,7.83
2018-04-24T13:12:41.262Z,15.43
2018-04-24T13:15:09.029Z,15.33
2018-04-24T13:17:36.617Z,12.33
2018-04-24T13:20:04.204Z,13.03
2018-04-24T13:22:31.806Z,6.90
2018-04-24T13:24:59.361Z,6.53
2018-04-24T13:27:26.946Z,6.53
2018-04-24T13:29:54.564Z,6.30
2018-04-24T13:32:22.144Z,14.13
2018-04-24T13:34:49.722Z,6.53
2018-04-24T13:37:17.475Z,16.23
2018-04-24T13:39:45.037Z,5.70
2018-04-24T13:42:12.731Z,5.90
2018-04-24T13:44:40.258Z,9.47
2018-04-24T13:47:08.007Z,7.03
2018-04-24T13:49:35.583Z,24.00
2018-04-24T13:52:03.188Z,8.40
2018-04-24T13:54:30.760Z,6.13
2018-04-24T13:56:58.317Z,11.60
2018-04-24T13:59:25.915Z,14.03
2018-04-24T14:01:53.520Z,13.80
2018-04-24T14:04:21.084Z,6.40
2018-04-24T14:06:48.677Z,8.83
2018-04-24T14:09:16.279Z,6.00
2018-04-24T14:11:43.863Z,10.90
2018-04-24T14:14:11.499Z,13.10
2018-04-24T14:16:39.064Z,14.63
2018-04-24T14:19:06.805Z,8.67
2018-04-24T14:21:34.441Z,10.50
2018-04-24T14:24:02.037Z,35.83
2018-04-24T14:26:29.621Z,24.47
2018-04-24T14:28:57.233Z,8.00
2018-04-24T14:31:24.813Z,12.90
2018-04-24T14:33:52.439Z,6.47
2018-04-24T14:36:20.049Z,7.80
2018-04-24T14:38:47.628Z,9.50
2018-04-24T14:44:00.919Z,8.40
2018-04-24T14:46:35.700Z,5.23
2018-04-24T14:49:04.900Z,11.43
2018-04-24T14:51:35.648Z,15.93
2018-04-24T14:56:43.964Z,9.33
2018-04-24T14:59:17.598Z,11.43
2018-04-24T15:04:24.290Z,11.50
2018-04-24T15:06:54.361Z,19.33
2018-04-24T15:09:23.107Z,9.97
2018-04-24T15:11:51.679Z,9.90
2018-04-24T15:14:21.379Z,6.47
2018-04-24T15:16:50.818Z,7.87
2018-04-24T15:19:23.628Z,13.60
2018-04-24T15:21:52.330Z,6.10
2018-04-24T15:24:20.966Z,11.77
2018-04-24T15:26:50.925Z,9.03
2018-04-24T15:29:22.485Z,39.70
2018-04-24T15:31:50.070Z,9.03
2018-04-24T15:34:17.664Z,10.87
2018-04-24T15:36:45.229Z,8.00
2018-04-24T15:39:12.861Z,7.33
2018-04-24T15:41:40.447Z,16.10
2018-04-24T15:44:08.039Z,35.00
2018-04-24T15:46:35.660Z,20.90
2018-04-24T15:49:03.248Z,18.43
2018-04-24T15:51:30.832Z,17.87
2018-04-24T15:53:58.453Z,10.43
2018-04-24T15:56:26.035Z,10.33
2018-04-24T15:58:53.600Z,15.13
2018-04-24T16:01:21.224Z,9.37
2018-04-24T16:03:48.808Z,18.10
2018-04-24T16:06:16.385Z,7.60
2018-04-24T16:08:43.989Z,24.03
2018-04-24T16:11:11.569Z,12.37
2018-04-24T16:13:39.154Z,5.83
2018-04-24T16:16:06.758Z,28.07
2018-04-24T16:18:34.382Z,25.73
2018-04-24T16:21:01.968Z,36.77
2018-04-24T16:23:29.579Z,42.03
2018-04-24T16:25:57.176Z,34.63
2018-04-24T16:28:24.751Z,35.50
2018-04-24T16:30:52.409Z,37.47
2018-04-24T16:33:19.962Z,26.33
2018-04-24T16:35:47.592Z,16.50
2018-04-24T16:38:15.195Z,14.03
2018-04-24T16:40:42.804Z,20.50
2018-04-24T16:43:10.380Z,32.13
2018-04-24T16:45:37.991Z,18.67
2018-04-24T16:48:05.669Z,15.87
2018-04-24T16:50:33.255Z,22.80
2018-04-24T16:53:00.877Z,22.00
2018-04-24T16:55:28.464Z,35.63
2018-04-24T16:57:56.037Z,16.10
2018-04-24T17:00:23.687Z,14.90
2018-04-24T17:02:51.265Z,14.20
2018-04-24T17:05:18.837Z,15.77
2018-04-24T17:07:46.444Z,10.37
2018-04-24T17:10:14.025Z,35.73
2018-04-24T17:12:41.627Z,18.50
2018-04-24T17:15:09.227Z,27.73
2018-04-24T17:17:36.801Z,18.83
2018-04-24T17:20:04.425Z,22.43
2018-04-24T17:22:32.044Z,23.97
2018-04-24T17:24:59.617Z,15.60
2018-04-24T17:27:27.194Z,27.23
2018-04-24T17:29:54.823Z,22.53
2018-04-24T17:32:22.415Z,27.90
2018-04-24T17:34:50.164Z,14.97
2018-04-24T17:37:17.820Z,32.93
2018-04-24T17:39:45.392Z,30.97
2018-04-24T17:42:12.977Z,21.87
2018-04-24T17:44:40.604Z,30.97
2018-04-24T17:47:08.283Z,15.30
2018-04-24T17:49:36.032Z,15.73
2018-04-24T17:52:03.654Z,15.90
2018-04-24T17:54:31.249Z,24.10
2018-04-24T17:56:58.824Z,24.63
2018-04-24T17:59:26.426Z,16.13
2018-04-24T18:01:54.006Z,19.77
2018-04-24T18:04:21.573Z,13.10
2018-04-24T18:06:49.338Z,9.27
2018-04-24T18:09:17.049Z,21.73
2018-04-24T18:11:44.709Z,15.67
2018-04-24T18:14:12.383Z,21.40
2018-04-24T18:16:39.940Z,11.70
2018-04-24T18:19:07.696Z,8.93
2018-04-24T18:21:35.384Z,27.93
2018-04-24T18:24:03.058Z,9.50
2018-04-24T18:26:30.668Z,13.17
2018-04-24T18:28:58.363Z,18.23
2018-04-24T18:31:25.949Z,14.40
2018-04-24T18:33:53.514Z,33.63
2018-04-24T18:36:21.126Z,21.33
2018-04-24T18:38:48.701Z,18.00
2018-04-24T18:41:16.263Z,23.30
2018-04-24T18:43:43.909Z,11.90
2018-04-24T18:46:11.492Z,10.53
2018-04-24T18:48:39.056Z,20.20
2018-04-24T18:51:06.671Z,20.33
2018-04-24T18:53:34.249Z,12.87
2018-04-24T18:56:01.839Z,27.57
2018-04-24T18:58:29.451Z,11.60
2018-04-24T19:00:57.026Z,11.73
2018-04-24T19:03:24.596Z,9.47
2018-04-24T19:05:52.559Z,13.53
2018-04-24T19:08:20.147Z,11.80
2018-04-24T19:10:47.789Z,14.70
2018-04-24T19:13:15.428Z,10.50
2018-04-24T19:15:43.106Z,6.80
2018-04-24T19:18:10.713Z,9.40
2018-04-24T19:20:38.326Z,7.73
2018-04-24T19:23:05.985Z,28.67
2018-04-24T19:25:39.166Z,13.73
2018-04-24T19:28:06.942Z,16.77
2018-04-24T19:30:34.507Z,7.87
2018-04-24T19:33:02.106Z,4.90
2018-04-24T19:35:29.704Z,10.63
2018-04-24T19:37:57.288Z,27.17
2018-04-24T19:40:30.319Z,14.43
2018-04-24T19:42:57.909Z,10.60
2018-04-24T19:45:25.501Z,13.20
2018-04-24T19:47:53.103Z,18.63
2018-04-24T19:50:20.671Z,22.97
2018-04-24T19:52:48.247Z,20.13
2018-04-24T19:55:21.394Z,13.63
2018-04-24T19:57:48.979Z,14.60
2018-04-24T20:00:16.605Z,18.57
2018-04-24T20:02:44.212Z,15.03
2018-04-24T20:05:11.792Z,19.50
2018-04-24T20:07:39.401Z,10.70
2018-04-24T20:10:07.028Z,13.20
2018-04-24T20:12:34.600Z,6.23
2018-04-24T20:15:02.174Z,6.47
2018-04-24T20:17:29.784Z,7.90
2018-04-24T20:19:57.357Z,11.00
2018-04-24T20:22:25.013Z,6.90
2018-04-24T20:24:52.645Z,10.70
2018-04-24T20:27:20.578Z,9.10
2018-04-24T20:29:48.159Z,14.53
2018-04-24T20:32:15.818Z,10.93
2018-04-24T20:34:43.436Z,13.63
2018-04-24T20:37:11.016Z,18.40
2018-04-24T20:39:38.628Z,8.00
2018-04-24T20:42:06.212Z,6.53
2018-04-24T20:44:33.804Z,7.90
2018-04-24T20:47:01.404Z,9.80
2018-04-24T20:49:29.027Z,10.37
2018-04-24T20:51:56.647Z,7.60
2018-04-24T20:54:24.295Z,12.90
2018-04-24T20:56:51.956Z,8.83
2018-04-24T20:59:19.588Z,7.60
2018-04-24T21:01:47.197Z,17.50
2018-04-24T21:04:14.803Z,21.53
2018-04-24T21:06:42.388Z,10.90
2018-04-24T21:09:10.005Z,24.77
2018-04-24T21:11:37.756Z,6.00
2018-04-24T21:14:05.340Z,16.60
2018-04-24T21:16:32.982Z,23.13
2018-04-24T21:19:00.606Z,9.70
2018-04-24T21:21:28.179Z,5.07
2018-04-24T21:23:55.753Z,7.83
2018-04-24T21:26:23.350Z,10.83
2018-04-24T21:28:50.922Z,10.60
2018-04-24T21:31:18.487Z,9.00
2018-04-24T21:33:46.094Z,11.53
2018-04-24T21:36:13.651Z,7.30
2018-04-24T21:38:41.209Z,18.10
2018-04-24T21:41:08.804Z,12.70
2018-04-24T21:43:36.371Z,23.00
2018-04-24T21:46:04.006Z,11.43
2018-04-24T21:48:31.667Z,12.60
2018-04-24T21:50:59.229Z,8.17
2018-04-24T21:53:26.977Z,6.50
2018-04-24T21:55:54.597Z,17.77
2018-04-24T21:58:22.198Z,12.23
2018-04-24T22:00:49.783Z,12.50
2018-04-24T22:03:17.390Z,12.50
2018-04-24T22:05:45.217Z,8.73
2018-04-24T22:08:12.973Z,12.83
2018-04-24T22:10:40.583Z,10.70
2018-04-24T22:13:08.302Z,9.27
2018-04-24T22:15:35.958Z,22.73
2018-04-24T22:18:03.626Z,11.10
2018-04-24T22:20:31.206Z,12.40
2018-04-24T22:22:58.940Z,13.30
2018-04-24T22:25:26.613Z,18.80
2018-04-24T22:27:54.196Z,13.53
2018-04-24T22:30:21.758Z,11.57
2018-04-24T22:32:49.525Z,10.60
2018-04-24T22:35:17.111Z,11.87
2018-04-24T22:37:44.700Z,12.00
2018-04-24T22:40:12.325Z,12.33
2018-04-24T22:42:40.033Z,14.70
2018-04-24T22:45:07.620Z,21.97
2018-04-24T22:47:35.232Z,14.90
2018-04-24T22:50:02.812Z,24.90
2018-04-24T22:52:30.389Z,10.60
2018-04-24T22:54:58.004Z,16.90
2018-04-24T22:57:25.588Z,14.40
2018-04-24T22:59:53.168Z,10.40
2018-04-24T23:02:21.167Z,12.73
2018-04-24T23:04:48.756Z,13.63
2018-04-24T23:07:16.338Z,12.20
2018-04-24T23:09:53.570Z,13.50
2018-04-24T23:12:32.724Z,21.93
2018-04-24T23:15:12.205Z,13.13
2018-04-24T23:17:51.469Z,10.30
2018-04-24T23:20:18.528Z,10.53
2018-04-24T23:22:46.139Z,16.27
2018-04-24T23:25:13.877Z,10.97
2018-04-24T23:27:41.587Z,14.80
2018-04-24T23:30:09.166Z,26.13
2018-04-24T23:32:36.753Z,18.23
2018-04-24T23:35:04.353Z,16.80
2018-04-24T23:37:31.917Z,13.33
2018-04-24T23:39:59.697Z,15.50
2018-04-24T23:42:27.340Z,13.93
2018-04-24T23:44:54.926Z,15.73
2018-04-24T23:47:22.524Z,16.87
2018-04-24T23:49:50.245Z,15.53
2018-04-24T23:52:17.837Z,15.43
2018-04-24T23:54:45.430Z,22.70
2018-04-24T23:57:13.053Z,11.53
2018-04-24T23:59:40.633Z,12.47
